createdAt,value
2022-12-14T00:00:14.945Z,0.20
2022-12-14T00:02:43.537Z,0.20
2022-12-14T00:05:12.240Z,0.20
2022-12-14T00:07:41.214Z,0.20
2022-12-14T00:10:10.601Z,0.20
2022-12-14T00:12:39.259Z,0.20
2022-12-14T00:15:10.447Z,0.20
2022-12-14T00:17:39.919Z,0.20
2022-12-14T00:20:09.372Z,0.20
2022-12-14T00:22:37.683Z,0.20
2022-12-14T00:25:07.129Z,0.20
2022-12-14T00:27:35.680Z,0.20
2022-12-14T00:30:04.624Z,0.20
2022-12-14T00:32:35.304Z,0.20
2022-12-14T00:35:03.762Z,0.20
2022-12-14T00:37:32.415Z,0.20
2022-12-14T00:40:01.067Z,0.20
2022-12-14T00:42:29.755Z,0.20
2022-12-14T00:44:58.200Z,0.20
2022-12-14T00:47:27.611Z,0.20
2022-12-14T00:49:57.566Z,0.20
2022-12-14T00:52:26.177Z,0.20
2022-12-14T00:54:54.559Z,0.20
2022-12-14T00:57:26.321Z,0.20
2022-12-14T00:59:56.249Z,0.20
2022-12-14T01:02:24.743Z,0.20
2022-12-14T01:04:53.348Z,0.20
2022-12-14T01:07:23.216Z,0.20
2022-12-14T01:09:51.732Z,0.20
2022-12-14T01:12:20.539Z,0.20
2022-12-14T01:14:49.855Z,0.20
2022-12-14T01:17:18.350Z,0.20
2022-12-14T01:19:49.141Z,0.20
2022-12-14T01:22:17.922Z,0.20
2022-12-14T01:24:47.936Z,0.20
2022-12-14T01:27:16.313Z,0.20
2022-12-14T01:29:44.755Z,0.20
2022-12-14T01:32:13.506Z,0.20
2022-12-14T01:34:41.932Z,0.20
2022-12-14T01:37:10.649Z,0.20
2022-12-14T01:39:40.060Z,0.20
2022-12-14T01:42:13.822Z,0.20
2022-12-14T01:44:55.626Z,0.20
2022-12-14T01:47:35.279Z,0.20
2022-12-14T01:50:10.006Z,0.20
2022-12-14T01:52:42.018Z,0.20
2022-12-14T01:55:15.940Z,0.20
2022-12-14T01:57:53.551Z,0.20
2022-12-14T02:00:23.512Z,0.20
2022-12-14T02:02:58.076Z,0.20
2022-12-14T02:05:27.341Z,0.20
2022-12-14T02:07:56.616Z,0.20
2022-12-14T02:10:31.154Z,0.20
2022-12-14T02:13:05.637Z,0.20
2022-12-14T02:15:35.650Z,0.20
2022-12-14T02:18:07.328Z,0.20
2022-12-14T02:20:44.595Z,0.20
2022-12-14T02:23:40.147Z,0.20
2022-12-14T02:26:36.124Z,0.20
2022-12-14T02:29:35.290Z,0.20
2022-12-14T02:32:15.071Z,0.20
2022-12-14T02:34:50.938Z,0.20
2022-12-14T02:37:24.038Z,0.20
2022-12-14T02:40:02.298Z,0.20
2022-12-14T02:42:41.804Z,0.20
2022-12-14T02:45:17.713Z,0.20
2022-12-14T02:47:54.479Z,-3276.00
2022-12-14T02:50:26.521Z,0.20
2022-12-14T02:53:04.521Z,0.20
2022-12-14T02:55:37.724Z,-3276.00
2022-12-14T02:58:12.943Z,0.20
2022-12-14T03:00:43.183Z,0.20
2022-12-14T03:03:11.549Z,0.20
2022-12-14T03:05:40.075Z,0.20
2022-12-14T03:08:12.029Z,0.00
2022-12-14T03:10:47.944Z,0.20
2022-12-14T03:13:23.925Z,0.20
2022-12-14T03:15:58.460Z,0.20
2022-12-14T03:18:29.760Z,0.20
2022-12-14T03:21:01.869Z,-3276.10
2022-12-14T03:23:35.084Z,0.20
2022-12-14T03:26:10.963Z,0.20
2022-12-14T03:28:43.146Z,0.20
2022-12-14T03:31:16.999Z,0.20
2022-12-14T03:33:47.949Z,0.20
2022-12-14T03:36:22.901Z,0.20
2022-12-14T03:38:54.981Z,0.20
2022-12-14T03:41:29.927Z,0.20
2022-12-14T03:44:08.545Z,0.20
2022-12-14T03:46:49.347Z,0.20
2022-12-14T03:49:22.113Z,0.20
2022-12-14T03:51:59.155Z,0.20
2022-12-14T03:54:38.064Z,0.20
2022-12-14T03:57:13.320Z,0.20
2022-12-14T03:59:48.471Z,0.20
2022-12-14T04:02:26.414Z,0.20
2022-12-14T04:05:03.561Z,0.20
2022-12-14T04:07:37.819Z,0.20
2022-12-14T04:10:26.788Z,0.20
2022-12-14T04:13:28.982Z,0.20
2022-12-14T04:16:18.310Z,0.20
2022-12-14T04:19:01.601Z,0.20
2022-12-14T04:21:37.582Z,0.20
2022-12-14T04:24:29.363Z,0.20
2022-12-14T04:27:02.268Z,0.20
2022-12-14T04:29:52.238Z,0.20
2022-12-14T04:32:25.194Z,0.20
2022-12-14T04:35:00.130Z,0.20
2022-12-14T04:37:31.471Z,0.20
2022-12-14T04:40:05.881Z,0.20
2022-12-14T04:42:40.571Z,0.20
2022-12-14T04:45:14.279Z,0.20
2022-12-14T04:47:49.927Z,0.20
2022-12-14T04:50:26.651Z,0.20
2022-12-14T04:53:01.157Z,0.20
2022-12-14T04:55:36.062Z,0.20
2022-12-14T04:58:10.682Z,0.20
2022-12-14T05:00:45.846Z,0.20
2022-12-14T05:03:28.953Z,0.20
2022-12-14T05:06:09.752Z,0.20
2022-12-14T05:08:54.589Z,0.20
2022-12-14T05:11:52.409Z,0.20
2022-12-14T05:14:22.702Z,0.20
2022-12-14T05:16:51.705Z,0.20
2022-12-14T05:19:26.544Z,0.20
2022-12-14T05:21:57.075Z,0.20
2022-12-14T05:24:25.669Z,0.20
2022-12-14T05:26:53.979Z,0.20
2022-12-14T05:29:22.640Z,0.20
2022-12-14T05:31:53.720Z,0.20
2022-12-14T05:34:22.701Z,0.20
2022-12-14T05:36:51.228Z,0.20
2022-12-14T05:39:20.897Z,0.20
2022-12-14T05:41:49.535Z,0.20
2022-12-14T05:44:18.314Z,0.20
2022-12-14T05:46:48.449Z,0.20
2022-12-14T05:49:17.310Z,0.20
2022-12-14T05:51:45.783Z,0.20
2022-12-14T05:54:14.442Z,0.20
2022-12-14T05:56:45.052Z,0.20
2022-12-14T05:59:15.930Z,0.20
2022-12-14T06:01:44.560Z,0.20
2022-12-14T06:04:18.622Z,0.20
2022-12-14T06:06:46.994Z,0.20
2022-12-14T06:09:16.818Z,0.20
2022-12-14T06:11:49.990Z,0.20
2022-12-14T06:14:19.126Z,0.20
2022-12-14T06:16:48.358Z,0.20
2022-12-14T06:19:18.036Z,0.20
2022-12-14T06:21:46.426Z,0.20
2022-12-14T06:24:15.991Z,0.20
2022-12-14T06:26:44.584Z,0.20
2022-12-14T06:29:18.023Z,0.20
2022-12-14T06:31:49.369Z,0.20
2022-12-14T06:34:23.426Z,0.20
2022-12-14T06:36:53.904Z,0.20
2022-12-14T06:39:22.396Z,0.20
2022-12-14T06:41:51.698Z,0.20
2022-12-14T06:44:23.050Z,0.20
2022-12-14T06:46:51.599Z,0.20
2022-12-14T06:49:20.298Z,0.20
2022-12-14T06:51:49.566Z,0.20
2022-12-14T06:54:19.324Z,0.20
2022-12-14T06:56:49.102Z,0.20
2022-12-14T06:59:18.223Z,0.20
2022-12-14T07:01:50.057Z,0.20
2022-12-14T07:04:21.287Z,0.20
2022-12-14T07:06:51.139Z,0.20
2022-12-14T07:09:19.547Z,0.20
2022-12-14T07:11:51.138Z,0.20
2022-12-14T07:14:19.648Z,0.20
2022-12-14T07:16:50.265Z,0.20
2022-12-14T07:19:19.202Z,0.20
2022-12-14T07:21:47.878Z,0.20
2022-12-14T07:24:17.454Z,0.20
2022-12-14T07:26:46.104Z,0.20
2022-12-14T07:29:16.737Z,0.20
2022-12-14T07:31:49.126Z,0.20
2022-12-14T07:34:19.731Z,0.20
2022-12-14T07:36:51.003Z,0.20
2022-12-14T07:39:20.749Z,0.20
2022-12-14T07:41:50.768Z,0.20
2022-12-14T07:44:19.364Z,0.20
2022-12-14T07:46:48.340Z,0.20
2022-12-14T07:49:16.906Z,0.20
2022-12-14T07:51:46.898Z,0.20
2022-12-14T07:54:15.482Z,0.20
2022-12-14T07:56:44.717Z,0.20
2022-12-14T07:59:16.274Z,0.20
2022-12-14T08:01:45.473Z,0.20
2022-12-14T08:04:15.880Z,0.20
2022-12-14T08:06:47.991Z,0.20
2022-12-14T08:09:17.383Z,0.20
2022-12-14T08:11:45.845Z,0.20
2022-12-14T08:14:17.456Z,0.20
2022-12-14T08:16:46.897Z,0.20
2022-12-14T08:19:15.504Z,0.20
2022-12-14T08:21:45.715Z,0.20
2022-12-14T08:24:16.802Z,0.20
2022-12-14T08:26:48.933Z,0.20
2022-12-14T08:29:18.443Z,0.20
2022-12-14T08:31:47.201Z,0.20
2022-12-14T08:34:20.864Z,0.20
2022-12-14T08:36:49.582Z,0.20
2022-12-14T08:39:19.378Z,0.20
2022-12-14T08:41:48.334Z,0.20
2022-12-14T08:44:18.768Z,0.20
2022-12-14T08:46:47.864Z,0.20
2022-12-14T08:49:16.367Z,0.20
2022-12-14T08:51:44.659Z,0.20
2022-12-14T08:54:13.705Z,0.20
2022-12-14T08:56:43.646Z,0.20
2022-12-14T08:59:24.669Z,0.20
2022-12-14T09:02:01.189Z,0.20
2022-12-14T09:04:29.959Z,0.20
2022-12-14T09:06:58.319Z,0.20
2022-12-14T09:09:27.127Z,0.20
2022-12-14T09:11:56.999Z,0.20
2022-12-14T09:14:25.562Z,0.20
2022-12-14T09:16:54.100Z,0.20
2022-12-14T09:19:23.789Z,0.20
2022-12-14T09:21:52.760Z,0.20
2022-12-14T09:24:24.660Z,0.20
2022-12-14T09:26:53.813Z,0.20
2022-12-14T09:29:23.888Z,0.20
2022-12-14T09:31:52.385Z,0.20
2022-12-14T09:34:20.906Z,0.20
2022-12-14T09:36:51.211Z,0.20
2022-12-14T09:39:19.708Z,0.20
2022-12-14T09:42:00.991Z,0.20
2022-12-14T09:44:47.837Z,0.20
2022-12-14T09:47:22.174Z,0.20
2022-12-14T09:49:55.339Z,0.20
2022-12-14T09:52:27.796Z,0.20
2022-12-14T09:54:57.840Z,0.20
2022-12-14T09:57:31.663Z,0.20
2022-12-14T10:00:01.420Z,0.20
2022-12-14T10:02:39.070Z,0.20
2022-12-14T10:05:33.336Z,0.20
2022-12-14T10:08:10.767Z,0.20
2022-12-14T10:10:49.964Z,0.20
2022-12-14T10:13:32.286Z,0.20
2022-12-14T10:16:17.500Z,0.20
2022-12-14T10:19:01.050Z,0.20
2022-12-14T10:21:42.450Z,0.20
2022-12-14T10:24:17.400Z,0.20
2022-12-14T10:26:51.961Z,0.20
2022-12-14T10:29:27.875Z,0.20
2022-12-14T10:32:05.237Z,0.20
2022-12-14T10:34:34.755Z,0.20
2022-12-14T10:37:13.237Z,0.20
2022-12-14T10:39:52.192Z,0.20
2022-12-14T10:42:33.096Z,0.20
2022-12-14T10:48:23.120Z,0.20
2022-12-14T10:50:58.865Z,0.20
2022-12-14T10:53:34.583Z,0.20
2022-12-14T10:56:14.693Z,0.20
2022-12-14T10:58:43.710Z,0.20
2022-12-14T11:01:16.820Z,0.20
2022-12-14T11:03:50.400Z,0.20
2022-12-14T11:06:21.451Z,0.20
2022-12-14T11:08:50.694Z,0.20
2022-12-14T11:11:22.852Z,0.20
2022-12-14T11:13:54.199Z,0.20
2022-12-14T11:16:35.756Z,0.20
2022-12-14T11:19:15.909Z,0.20
2022-12-14T11:21:45.348Z,0.20
2022-12-14T11:24:26.667Z,0.20
2022-12-14T11:27:00.333Z,0.20
2022-12-14T11:29:33.363Z,0.20
2022-12-14T11:32:03.186Z,0.20
2022-12-14T11:34:38.303Z,0.20
2022-12-14T11:37:15.816Z,0.20
2022-12-14T11:39:44.429Z,0.20
2022-12-14T11:42:19.228Z,0.20
2022-12-14T11:44:49.888Z,0.20
2022-12-14T11:47:21.279Z,0.20
2022-12-14T11:49:54.276Z,0.20
2022-12-14T11:52:25.328Z,0.20
2022-12-14T11:55:11.070Z,0.20
2022-12-14T11:57:49.932Z,0.20
2022-12-14T12:00:27.235Z,0.20
2022-12-14T12:03:01.713Z,0.20
2022-12-14T12:05:33.900Z,0.20
2022-12-14T12:08:03.428Z,0.20
2022-12-14T12:10:41.960Z,0.20
2022-12-14T12:13:20.065Z,0.20
2022-12-14T12:15:51.863Z,0.20
2022-12-14T12:18:25.691Z,0.20
2022-12-14T12:21:00.666Z,0.20
2022-12-14T12:23:36.050Z,0.20
2022-12-14T12:26:13.176Z,0.20
2022-12-14T12:28:48.476Z,0.20
2022-12-14T12:31:23.759Z,0.20
2022-12-14T12:33:59.327Z,0.20
2022-12-14T12:36:32.306Z,0.20
2022-12-14T12:39:06.248Z,0.20
2022-12-14T12:41:48.041Z,0.20
2022-12-14T12:44:25.772Z,0.20
2022-12-14T12:49:53.326Z,0.20
2022-12-14T12:52:28.676Z,0.20
2022-12-14T12:55:02.446Z,0.20
2022-12-14T12:57:38.088Z,0.20
2022-12-14T13:00:07.737Z,0.20
2022-12-14T13:02:39.466Z,0.20
2022-12-14T13:05:44.616Z,0.20
2022-12-14T13:08:09.130Z,0.20
2022-12-14T13:11:09.065Z,0.20
2022-12-14T13:13:36.048Z,0.20
2022-12-14T13:16:11.143Z,0.20
2022-12-14T13:19:02.004Z,0.20
2022-12-14T13:21:34.730Z,0.20
2022-12-14T13:24:06.800Z,0.20
2022-12-14T13:27:07.537Z,0.20
2022-12-14T13:29:50.899Z,0.20
2022-12-14T13:32:37.010Z,0.20
2022-12-14T13:35:20.216Z,0.20
2022-12-14T13:38:05.897Z,6.70
2022-12-14T13:41:06.896Z,1.10
2022-12-14T13:44:05.568Z,0.70
2022-12-14T13:46:34.064Z,0.60
2022-12-14T13:49:06.393Z,0.50
2022-12-14T13:51:38.468Z,0.50
2022-12-14T13:54:19.491Z,0.50
2022-12-14T13:56:50.319Z,0.50
2022-12-14T13:59:29.753Z,0.20
2022-12-14T14:02:01.281Z,0.50
2022-12-14T14:04:30.885Z,0.50
2022-12-14T14:07:41.341Z,0.30
2022-12-14T14:10:30.838Z,0.30
2022-12-14T14:13:01.803Z,0.40
2022-12-14T14:16:26.780Z,0.30
2022-12-14T14:18:49.292Z,0.40
2022-12-14T14:21:38.821Z,0.40
2022-12-14T14:24:23.700Z,0.50
2022-12-14T14:27:12.788Z,0.50
2022-12-14T14:29:49.521Z,0.20
2022-12-14T14:32:48.696Z,0.30
2022-12-14T14:35:28.550Z,0.40
2022-12-14T14:37:59.925Z,0.20
2022-12-14T14:40:58.625Z,0.40
2022-12-14T14:43:29.467Z,0.40
2022-12-14T14:46:02.736Z,0.50
2022-12-14T14:48:35.523Z,0.60
2022-12-14T14:51:08.725Z,0.60
2022-12-14T14:53:38.973Z,0.40
2022-12-14T14:56:36.583Z,0.60
2022-12-14T14:59:38.073Z,0.30
2022-12-14T15:02:29.287Z,0.60
2022-12-14T15:05:17.585Z,0.60
2022-12-14T15:07:47.471Z,0.50
2022-12-14T15:10:25.658Z,0.40
2022-12-14T15:12:56.855Z,0.40
2022-12-14T15:15:33.304Z,0.50
2022-12-14T15:18:18.028Z,0.40
2022-12-14T15:20:55.877Z,0.50
2022-12-14T15:23:25.727Z,0.40
2022-12-14T15:25:59.153Z,0.40
2022-12-14T15:28:29.396Z,0.50
2022-12-14T15:31:00.195Z,0.30
2022-12-14T15:33:33.894Z,0.30
2022-12-14T15:36:07.431Z,0.30
2022-12-14T15:38:37.579Z,0.40
2022-12-14T15:41:16.919Z,0.30
2022-12-14T15:43:46.584Z,0.30
2022-12-14T15:46:18.433Z,0.40
2022-12-14T15:48:55.357Z,0.30
2022-12-14T15:51:28.980Z,0.30
2022-12-14T15:53:57.658Z,0.30
2022-12-14T15:56:29.689Z,0.30
2022-12-14T15:59:00.053Z,0.30
2022-12-14T16:01:33.295Z,0.10
2022-12-14T16:04:07.791Z,0.30
2022-12-14T16:06:41.240Z,0.40
2022-12-14T16:09:18.605Z,0.30
2022-12-14T16:11:50.651Z,0.30
2022-12-14T16:14:26.071Z,0.40
2022-12-14T16:16:55.339Z,0.50
2022-12-14T16:19:29.837Z,0.20
2022-12-14T16:22:14.861Z,0.30
2022-12-14T16:25:18.094Z,0.40
2022-12-14T16:27:50.195Z,0.40
2022-12-14T16:30:27.368Z,0.20
2022-12-14T16:33:08.923Z,0.20
2022-12-14T16:35:39.523Z,0.40
2022-12-14T16:38:10.140Z,0.10
2022-12-14T16:40:41.596Z,0.20
2022-12-14T16:43:28.359Z,0.20
2022-12-14T16:46:14.182Z,0.30
2022-12-14T16:48:46.128Z,0.40
2022-12-14T16:51:58.294Z,0.40
2022-12-14T16:54:25.019Z,0.30
2022-12-14T16:56:58.106Z,0.40
2022-12-14T16:59:31.578Z,0.40
2022-12-14T17:02:01.011Z,0.40
2022-12-14T17:04:35.478Z,0.20
2022-12-14T17:07:05.745Z,0.30
2022-12-14T17:09:35.426Z,0.40
2022-12-14T17:12:15.208Z,0.40
2022-12-14T17:14:50.043Z,0.40
2022-12-14T17:17:26.054Z,0.40
2022-12-14T17:19:56.048Z,0.40
2022-12-14T17:22:28.696Z,0.50
2022-12-14T17:24:57.639Z,0.30
2022-12-14T17:27:27.118Z,0.40
2022-12-14T17:29:57.481Z,0.50
2022-12-14T17:32:30.573Z,0.10
2022-12-14T17:34:59.674Z,0.40
2022-12-14T17:37:35.683Z,0.30
2022-12-14T17:40:05.985Z,0.40
2022-12-14T17:42:34.292Z,0.40
2022-12-14T17:45:02.620Z,0.20
2022-12-14T17:47:31.168Z,0.30
2022-12-14T17:49:59.656Z,0.30
2022-12-14T17:52:31.776Z,0.40
2022-12-14T17:55:00.369Z,0.20
2022-12-14T17:57:28.904Z,0.40
2022-12-14T18:00:11.142Z,0.60
2022-12-14T18:02:42.344Z,0.40
2022-12-14T18:05:19.105Z,0.60
2022-12-14T18:07:50.204Z,0.50
2022-12-14T18:10:19.531Z,0.40
2022-12-14T18:12:48.642Z,0.40
2022-12-14T18:15:20.861Z,0.50
2022-12-14T18:17:51.565Z,0.50
2022-12-14T18:20:20.859Z,0.50
2022-12-14T18:22:52.191Z,0.70
2022-12-14T18:25:30.243Z,0.40
2022-12-14T18:27:59.545Z,0.40
2022-12-14T18:30:30.937Z,0.60
2022-12-14T18:33:04.048Z,0.50
2022-12-14T18:35:34.593Z,0.30
2022-12-14T18:38:04.504Z,0.40
2022-12-14T18:40:33.141Z,0.40
2022-12-14T18:43:01.428Z,0.50
2022-12-14T18:45:32.562Z,0.40
2022-12-14T18:48:01.946Z,0.50
2022-12-14T18:50:31.165Z,0.50
2022-12-14T18:53:01.425Z,0.40
2022-12-14T18:55:33.723Z,0.50
2022-12-14T18:58:04.054Z,0.40
2022-12-14T19:00:34.701Z,0.50
2022-12-14T19:03:05.242Z,0.20
2022-12-14T19:05:34.348Z,0.30
2022-12-14T19:08:02.947Z,0.50
2022-12-14T19:10:33.972Z,0.50
2022-12-14T19:13:03.023Z,0.40
2022-12-14T19:15:35.030Z,0.40
2022-12-14T19:18:04.474Z,0.40
2022-12-14T19:20:34.196Z,0.50
2022-12-14T19:23:06.480Z,0.50
2022-12-14T19:25:37.218Z,0.30
2022-12-14T19:30:56.368Z,0.30
2022-12-14T19:33:25.698Z,0.50
2022-12-14T19:35:55.189Z,0.40
2022-12-14T19:38:24.214Z,0.40
2022-12-14T19:41:03.003Z,0.40
2022-12-14T19:43:32.484Z,0.30
2022-12-14T19:46:01.947Z,0.30
2022-12-14T19:48:30.963Z,0.30
2022-12-14T19:51:03.499Z,0.30
2022-12-14T19:53:33.788Z,0.40
2022-12-14T19:56:05.364Z,0.30
2022-12-14T19:58:34.447Z,0.20
2022-12-14T20:01:10.276Z,0.30
2022-12-14T20:03:39.361Z,0.30
2022-12-14T20:06:08.816Z,0.30
2022-12-14T20:08:37.772Z,0.40
2022-12-14T20:11:09.148Z,0.40
2022-12-14T20:13:38.128Z,0.30
2022-12-14T20:16:07.773Z,0.30
2022-12-14T20:18:36.326Z,0.30
2022-12-14T20:21:08.930Z,0.20
2022-12-14T20:23:39.088Z,0.30
2022-12-14T20:26:12.347Z,0.20
2022-12-14T20:28:41.423Z,0.30
2022-12-14T20:31:12.904Z,0.30
2022-12-14T20:33:43.562Z,0.20
2022-12-14T20:36:12.010Z,0.40
2022-12-14T20:38:40.761Z,0.40
2022-12-14T20:41:12.984Z,0.30
2022-12-14T20:43:43.545Z,0.10
2022-12-14T20:46:26.198Z,0.20
2022-12-14T20:48:55.331Z,0.10
2022-12-14T20:51:24.350Z,0.00
2022-12-14T20:53:53.082Z,0.10
2022-12-14T20:56:24.011Z,0.00
2022-12-14T20:58:53.276Z,0.00
2022-12-14T21:01:22.939Z,0.00
2022-12-14T21:03:52.049Z,0.00
2022-12-14T21:06:23.264Z,-3276.70
2022-12-14T21:09:09.575Z,-3276.60
2022-12-14T21:11:59.177Z,0.00
2022-12-14T21:14:30.795Z,-3276.60
2022-12-14T21:16:59.795Z,-3276.60
2022-12-14T21:19:28.679Z,-3276.40
2022-12-14T21:21:57.205Z,-3276.40
2022-12-14T21:27:20.495Z,-3276.60
2022-12-14T21:29:49.945Z,-3276.50
2022-12-14T21:32:19.303Z,-3276.30
2022-12-14T21:34:49.070Z,-3276.50
2022-12-14T21:37:18.197Z,-3276.40
2022-12-14T21:39:53.863Z,-3276.30
2022-12-14T21:42:24.324Z,-3276.40
2022-12-14T21:44:53.869Z,-3276.40
2022-12-14T21:47:24.088Z,-3276.40
2022-12-14T21:49:52.462Z,-3276.50
2022-12-14T21:52:22.857Z,-3276.30
2022-12-14T21:54:51.408Z,-3276.40
2022-12-14T21:57:41.976Z,-3276.40
2022-12-14T22:00:13.169Z,-3276.30
2022-12-14T22:02:42.794Z,-3276.40
2022-12-14T22:05:11.757Z,-3276.30
2022-12-14T22:07:42.627Z,-3276.20
2022-12-14T22:10:11.249Z,-3276.20
2022-12-14T22:12:40.092Z,-3276.30
2022-12-14T22:15:09.888Z,-3276.30
2022-12-14T22:17:39.821Z,-3276.40
2022-12-14T22:20:09.422Z,-3276.30
2022-12-14T22:22:38.031Z,-3276.20
2022-12-14T22:25:07.376Z,-3276.10
2022-12-14T22:27:35.701Z,-3276.30
2022-12-14T22:30:05.416Z,-3276.10
2022-12-14T22:32:33.928Z,-3276.10
2022-12-14T22:35:03.789Z,-3276.20
2022-12-14T22:37:32.267Z,-3276.00
2022-12-14T22:40:01.110Z,-3276.00
2022-12-14T22:42:29.443Z,-3276.00
2022-12-14T22:44:59.980Z,-3275.90
2022-12-14T22:47:29.630Z,-3275.90
2022-12-14T22:49:58.264Z,-3275.80
2022-12-14T22:52:28.157Z,-3276.00
2022-12-14T22:54:56.618Z,-3275.80
2022-12-14T22:57:25.208Z,-3275.80
2022-12-14T22:59:58.568Z,-3275.80
2022-12-14T23:02:27.512Z,-3275.80
2022-12-14T23:04:57.402Z,-3275.80
2022-12-14T23:07:27.433Z,-3275.80
2022-12-14T23:10:13.713Z,-3275.70
2022-12-14T23:13:00.261Z,-3275.70
2022-12-14T23:15:46.296Z,0.20
2022-12-14T23:18:32.911Z,0.20
2022-12-14T23:21:26.228Z,0.20
2022-12-14T23:24:13.941Z,0.20
2022-12-14T23:27:04.244Z,0.20
2022-12-14T23:29:53.085Z,0.20
2022-12-14T23:32:39.112Z,0.20
2022-12-14T23:35:27.378Z,0.20
2022-12-14T23:45:41.942Z,0.20
2022-12-14T23:48:28.092Z,0.20
2022-12-14T23:51:14.433Z,0.20
2022-12-14T23:54:00.743Z,0.20
2022-12-14T23:56:46.467Z,0.20
2022-12-14T23:59:33.896Z,0.20
